Time;durP1;ratioP1;P1;durP2;ratioP2;P2;SDS_P1;SDS_P2;PMS_P1;PMS_P2;Temp;Humidity;BMP_temperature;BMP_pressure;BME280_temperature;BME280_humidity;BME280_pressure;Samples;Min_cycle;Max_cycle;Signal;HPM_P1;HPM_P2
2022/06/15 00:00:55;;;;;;;11.02;7.60;;;12.90;99.90;;;;;;5015913;28;20072;-75
2022/06/15 00:03:21;;;;;;;11.48;7.38;;;12.90;99.90;;;;;;5010627;28;20042;-76
2022/06/15 00:05:47;;;;;;;9.65;6.88;;;12.90;99.90;;;;;;5003505;28;20468;-76
2022/06/15 00:08:16;;;;;;;9.65;7.70;;;12.80;99.90;;;;;;4998334;28;20041;-76
2022/06/15 00:10:41;;;;;;;9.02;7.05;;;12.80;99.90;;;;;;5004615;28;20052;-76
2022/06/15 00:13:08;;;;;;;10.65;7.28;;;12.80;99.90;;;;;;4989809;28;20042;-76
2022/06/15 00:15:34;;;;;;;10.48;7.25;;;12.80;99.90;;;;;;4975996;28;20076;-76
2022/06/15 00:18:00;;;;;;;10.48;7.55;;;12.80;99.90;;;;;;5031632;28;20042;-76
2022/06/15 00:20:27;;;;;;;11.43;8.30;;;12.80;99.90;;;;;;5008407;28;20052;-76
2022/06/15 00:22:53;;;;;;;11.00;7.78;;;12.80;99.90;;;;;;4985092;28;20281;-76
2022/06/15 00:25:18;;;;;;;9.55;7.72;;;12.70;99.90;;;;;;5005259;28;20041;-76
2022/06/15 00:27:44;;;;;;;9.85;7.65;;;12.70;99.90;;;;;;4970727;28;20043;-76
2022/06/15 00:30:11;;;;;;;9.35;7.68;;;12.70;99.90;;;;;;4987403;28;20081;-76
2022/06/15 00:32:37;;;;;;;9.32;6.93;;;12.60;99.90;;;;;;4998707;28;20050;-76
2022/06/15 00:35:03;;;;;;;11.05;6.90;;;12.60;99.90;;;;;;4970184;28;20060;-75
2022/06/15 00:37:29;;;;;;;10.40;7.05;;;12.60;99.90;;;;;;4992112;28;20141;-76
2022/06/15 00:39:54;;;;;;;7.82;6.82;;;12.60;99.90;;;;;;5012609;28;20125;-76
2022/06/15 00:42:20;;;;;;;11.73;7.13;;;12.50;99.90;;;;;;4999936;28;20050;-75
2022/06/15 00:44:46;;;;;;;8.93;7.30;;;12.50;99.90;;;;;;5015302;28;20050;-76
2022/06/15 00:47:20;;;;;;;11.65;6.88;;;12.50;99.90;;;;;;4991035;28;20047;-76
2022/06/15 00:49:52;;;;;;;9.40;7.43;;;12.40;99.90;;;;;;4999372;28;20041;-75
2022/06/15 00:52:32;;;;;;;9.60;7.90;;;12.40;99.90;;;;;;4997703;28;20140;-75
2022/06/15 00:55:11;;;;;;;10.25;8.88;;;12.30;99.90;;;;;;5002930;28;20062;-75
2022/06/15 00:57:37;;;;;;;11.80;7.47;;;12.30;99.90;;;;;;5011309;28;20046;-75
2022/06/15 01:00:05;;;;;;;11.63;8.27;;;12.20;99.90;;;;;;5003629;28;20099;-76
2022/06/15 01:02:36;;;;;;;9.15;7.53;;;12.20;99.90;;;;;;5036005;28;20385;-76
2022/06/15 01:05:12;;;;;;;9.38;7.97;;;12.20;99.90;;;;;;5003078;28;20046;-75
2022/06/15 01:08:03;;;;;;;11.48;8.45;;;12.20;99.90;;;;;;4987192;28;20096;-76
2022/06/15 01:10:45;;;;;;;8.85;7.45;;;12.20;99.90;;;;;;5047036;28;20452;-75
2022/06/15 01:13:13;;;;;;;10.80;7.82;;;12.10;99.90;;;;;;5010195;28;20081;-75
2022/06/15 01:16:03;;;;;;;8.80;7.40;;;12.10;99.90;;;;;;5004665;28;20394;-75
2022/06/15 01:19:00;;;;;;;8.68;6.95;;;12.10;99.90;;;;;;5004507;28;20046;-76
2022/06/15 01:21:37;;;;;;;9.02;7.30;;;12.00;99.90;;;;;;5035678;28;20297;-75
2022/06/15 01:24:08;;;;;;;12.13;7.60;;;11.90;99.90;;;;;;5007672;28;20195;-75
2022/06/15 01:27:10;;;;;;;11.43;7.47;;;11.90;99.90;;;;;;5032555;28;20053;-75
2022/06/15 01:30:10;;;;;;;10.13;7.53;;;11.80;99.90;;;;;;5005663;28;20398;-75
2022/06/15 01:32:58;;;;;;;9.85;8.38;;;11.80;99.90;;;;;;5015417;28;20456;-75
2022/06/15 01:35:45;;;;;;;12.63;8.90;;;11.80;99.90;;;;;;4988589;28;20041;-75
2022/06/15 01:38:22;;;;;;;11.77;8.13;;;11.80;99.90;;;;;;4980089;28;20037;-76
2022/06/15 01:41:36;;;;;;;10.02;7.63;;;11.80;99.90;;;;;;4995558;28;20683;-75
2022/06/15 01:44:13;;;;;;;10.70;7.47;;;11.70;99.90;;;;;;4995266;28;20053;-76
2022/06/15 01:46:47;;;;;;;8.43;6.95;;;11.70;99.90;;;;;;5000927;28;20041;-75
2022/06/15 01:49:24;;;;;;;11.52;8.00;;;11.60;99.90;;;;;;5017140;28;20121;-75
2022/06/15 01:51:50;;;;;;;11.30;7.57;;;11.60;99.90;;;;;;5003690;28;20152;-75
2022/06/15 01:54:28;;;;;;;8.35;7.32;;;11.60;99.90;;;;;;5007714;28;20037;-74
2022/06/15 01:56:56;;;;;;;8.10;6.75;;;11.50;99.90;;;;;;5034171;28;20120;-75
2022/06/15 01:59:42;;;;;;;8.35;7.25;;;11.50;99.90;;;;;;5008246;28;20050;-75
2022/06/15 02:02:25;;;;;;;11.52;7.20;;;11.50;99.90;;;;;;5034603;28;20045;-75
2022/06/15 02:05:21;;;;;;;11.73;7.70;;;11.50;99.90;;;;;;5025246;28;20072;-75
2022/06/15 02:08:09;;;;;;;11.60;8.10;;;11.50;99.90;;;;;;4996557;28;20042;-75
2022/06/15 02:11:00;;;;;;;8.75;6.90;;;11.50;99.90;;;;;;5002249;28;20054;-74
2022/06/15 02:13:47;;;;;;;11.32;8.75;;;11.50;99.90;;;;;;5035432;28;20116;-74
2022/06/15 02:16:31;;;;;;;10.30;7.85;;;11.40;99.90;;;;;;5028978;28;20053;-75
2022/06/15 02:18:58;;;;;;;11.52;8.88;;;11.50;99.90;;;;;;4994725;28;20096;-74
2022/06/15 02:21:27;;;;;;;9.20;6.80;;;11.40;99.90;;;;;;4984850;28;20041;-75
2022/06/15 02:23:57;;;;;;;9.80;8.38;;;11.30;99.90;;;;;;4992321;28;20060;-74
2022/06/15 02:26:26;;;;;;;9.32;8.32;;;11.20;99.90;;;;;;4992481;28;20062;-75
2022/06/15 02:28:56;;;;;;;8.90;6.70;;;11.20;99.90;;;;;;4991259;28;20045;-75
2022/06/15 02:31:22;;;;;;;10.02;7.18;;;11.20;99.90;;;;;;4984908;28;20107;-74
2022/06/15 02:33:56;;;;;;;12.35;7.97;;;11.20;99.90;;;;;;4982171;28;20076;-74
2022/06/15 02:36:24;;;;;;;10.02;6.90;;;11.20;99.90;;;;;;5030678;28;20460;-74
2022/06/15 02:38:51;;;;;;;10.25;7.30;;;11.10;99.90;;;;;;4995055;28;20551;-74
2022/06/15 02:41:21;;;;;;;10.35;7.93;;;11.20;99.90;;;;;;5034982;28;20065;-75
2022/06/15 02:43:49;;;;;;;9.52;7.15;;;11.20;99.90;;;;;;5033580;28;20058;-74
2022/06/15 02:46:17;;;;;;;11.13;8.10;;;11.20;99.90;;;;;;5007837;28;20038;-75
2022/06/15 02:48:43;;;;;;;9.82;8.32;;;11.20;99.90;;;;;;4988814;28;20050;-74
2022/06/15 02:51:32;;;;;;;10.45;7.68;;;11.30;99.90;;;;;;5001979;28;20460;-75
2022/06/15 02:54:07;;;;;;;10.35;8.32;;;11.30;99.90;;;;;;5011820;28;20417;-74
2022/06/15 02:56:34;;;;;;;11.30;8.38;;;11.20;99.90;;;;;;5022718;28;20054;-75
2022/06/15 02:59:01;;;;;;;11.52;8.23;;;11.20;99.90;;;;;;4992334;28;20048;-75
2022/06/15 03:01:28;;;;;;;14.43;8.85;;;11.20;99.90;;;;;;4995240;28;20137;-74
2022/06/15 03:03:54;;;;;;;10.20;9.00;;;11.20;99.90;;;;;;4993023;28;20041;-74
2022/06/15 03:06:21;;;;;;;11.02;8.70;;;11.20;99.90;;;;;;5000246;28;20389;-73
2022/06/15 03:08:47;;;;;;;12.32;8.25;;;11.20;99.90;;;;;;5000486;28;20053;-73
2022/06/15 03:11:13;;;;;;;8.68;7.57;;;11.20;99.90;;;;;;4997162;28;20053;-74
2022/06/15 03:13:42;;;;;;;13.15;9.52;;;11.20;99.90;;;;;;5028163;28;20057;-74
2022/06/15 03:16:09;;;;;;;9.95;7.97;;;11.20;99.90;;;;;;4991958;28;20403;-73
2022/06/15 03:18:34;;;;;;;10.75;8.57;;;11.20;99.90;;;;;;5022297;28;20122;-74
2022/06/15 03:21:02;;;;;;;11.75;8.70;;;11.10;99.90;;;;;;4997096;28;20536;-73
2022/06/15 03:23:30;;;;;;;11.35;8.13;;;11.10;99.90;;;;;;4992249;28;20107;-73
2022/06/15 03:25:58;;;;;;;11.77;8.80;;;11.10;99.90;;;;;;5011999;28;20785;-73
2022/06/15 03:28:24;;;;;;;9.95;7.82;;;11.10;99.90;;;;;;5001660;28;20052;-73
2022/06/15 03:30:51;;;;;;;9.27;7.90;;;11.10;99.90;;;;;;5038360;28;20153;-73
2022/06/15 03:33:17;;;;;;;9.60;8.10;;;11.10;99.90;;;;;;4996749;28;20042;-73
2022/06/15 03:35:44;;;;;;;14.02;9.10;;;11.10;99.90;;;;;;5026267;28;20045;-73
2022/06/15 03:38:11;;;;;;;12.85;9.15;;;11.10;99.90;;;;;;5006126;28;20095;-73
2022/06/15 03:40:40;;;;;;;11.25;8.52;;;11.10;99.90;;;;;;5016032;28;20041;-73
2022/06/15 03:43:07;;;;;;;10.93;8.38;;;11.10;99.90;;;;;;5007789;28;20052;-74
2022/06/15 03:45:33;;;;;;;12.25;9.05;;;11.20;99.90;;;;;;4990533;28;20045;-73
2022/06/15 03:47:59;;;;;;;11.10;8.80;;;11.20;99.90;;;;;;5015500;28;20078;-74
2022/06/15 03:50:27;;;;;;;10.88;8.82;;;11.20;99.90;;;;;;5005969;28;20041;-73
2022/06/15 03:52:54;;;;;;;9.50;8.32;;;11.20;99.90;;;;;;4966615;28;20049;-74
2022/06/15 03:55:20;;;;;;;10.98;9.38;;;11.20;99.90;;;;;;5002646;28;20045;-74
2022/06/15 03:57:47;;;;;;;10.85;8.13;;;11.20;99.90;;;;;;5000724;28;20071;-74
2022/06/15 04:00:21;;;;;;;11.57;9.43;;;11.30;99.90;;;;;;4967293;28;20058;-74
2022/06/15 04:02:46;;;;;;;9.82;8.73;;;11.30;99.90;;;;;;5036636;28;21019;-74
2022/06/15 04:05:19;;;;;;;11.45;9.15;;;11.30;99.90;;;;;;4984644;28;20132;-74
2022/06/15 04:10:29;;;;;;;11.65;8.90;;;11.30;99.90;;;;;;5004024;28;20037;-74
2022/06/15 04:12:54;;;;;;;10.20;8.23;;;11.30;99.90;;;;;;4988923;28;20056;-74
2022/06/15 04:15:20;;;;;;;10.75;9.68;;;11.40;99.90;;;;;;4985940;28;20100;-74
2022/06/15 04:17:46;;;;;;;11.52;8.77;;;11.40;99.90;;;;;;5003060;28;20046;-74
2022/06/15 04:20:36;;;;;;;10.65;8.48;;;11.40;99.90;;;;;;5000943;28;20983;-74
2022/06/15 04:23:23;;;;;;;12.70;8.50;;;11.50;99.90;;;;;;5007813;28;20117;-74
2022/06/15 04:25:57;;;;;;;11.95;9.48;;;11.50;99.90;;;;;;5006805;28;20076;-74
2022/06/15 04:28:25;;;;;;;11.75;9.05;;;11.50;99.90;;;;;;5005723;28;20050;-74
2022/06/15 04:30:51;;;;;;;11.57;8.40;;;11.50;99.90;;;;;;5006239;28;20492;-74
2022/06/15 04:33:23;;;;;;;11.82;9.13;;;11.60;99.90;;;;;;5021607;28;20030;-74
2022/06/15 04:35:49;;;;;;;11.00;9.45;;;11.60;99.90;;;;;;4991781;28;20496;-74
2022/06/15 04:38:14;;;;;;;11.52;8.93;;;11.70;99.90;;;;;;5011747;28;20034;-74
2022/06/15 04:40:41;;;;;;;14.20;9.77;;;11.70;99.90;;;;;;4988336;28;20046;-74
2022/06/15 04:43:08;;;;;;;10.70;9.40;;;11.80;99.90;;;;;;4993098;28;20049;-74
2022/06/15 04:45:35;;;;;;;10.65;8.95;;;11.80;99.90;;;;;;5037914;28;20120;-74
2022/06/15 04:48:01;;;;;;;11.38;9.50;;;11.80;99.90;;;;;;4996661;28;20075;-75
2022/06/15 04:50:28;;;;;;;12.63;9.40;;;11.90;99.90;;;;;;5001094;28;20042;-74
2022/06/15 04:52:54;;;;;;;12.48;9.50;;;11.90;99.90;;;;;;5039980;28;20048;-74
2022/06/15 04:55:22;;;;;;;12.57;9.60;;;12.00;99.90;;;;;;4994903;28;20042;-73
2022/06/15 04:57:50;;;;;;;14.23;9.70;;;12.10;99.90;;;;;;5004788;28;20127;-74
2022/06/15 05:00:17;;;;;;;10.52;9.40;;;12.10;99.90;;;;;;5004130;28;20038;-74
2022/06/15 05:02:46;;;;;;;11.57;9.25;;;12.20;99.90;;;;;;5018637;28;20057;-74
2022/06/15 05:05:12;;;;;;;12.27;9.95;;;12.30;99.90;;;;;;5014642;28;20038;-74
2022/06/15 05:07:38;;;;;;;11.35;8.93;;;12.30;99.90;;;;;;4984851;28;20038;-74
2022/06/15 05:10:05;;;;;;;12.45;8.30;;;12.40;99.90;;;;;;5015557;28;20058;-75
2022/06/15 05:12:31;;;;;;;13.43;9.80;;;12.40;99.90;;;;;;4988598;28;20512;-74
2022/06/15 05:14:57;;;;;;;14.18;9.05;;;12.50;99.90;;;;;;5001727;28;20054;-74
2022/06/15 05:17:24;;;;;;;9.55;8.52;;;12.50;99.90;;;;;;4990604;28;20426;-75
2022/06/15 05:19:50;;;;;;;11.93;8.98;;;12.50;99.90;;;;;;5002986;28;20042;-74
2022/06/15 05:22:16;;;;;;;14.85;8.82;;;12.60;99.90;;;;;;5020001;28;20060;-75
2022/06/15 05:24:42;;;;;;;10.30;8.45;;;12.60;99.90;;;;;;5002808;28;20069;-75
2022/06/15 05:27:08;;;;;;;10.68;8.40;;;12.60;99.90;;;;;;4982400;28;20059;-75
2022/06/15 05:29:36;;;;;;;12.35;9.32;;;12.60;99.90;;;;;;5001383;28;20054;-75
2022/06/15 05:32:06;;;;;;;10.32;8.75;;;12.70;99.90;;;;;;4996668;28;20074;-75
2022/06/15 05:34:35;;;;;;;12.02;9.40;;;12.70;99.90;;;;;;5015941;28;20038;-75
2022/06/15 05:37:01;;;;;;;10.93;8.43;;;12.80;99.90;;;;;;4984357;28;20505;-75
2022/06/15 05:39:27;;;;;;;11.43;8.30;;;12.90;99.90;;;;;;4997653;28;20053;-72
2022/06/15 05:41:53;;;;;;;10.82;7.80;;;13.00;99.90;;;;;;4983980;28;20531;-72
2022/06/15 05:46:45;;;;;;;11.30;7.53;;;13.20;99.90;;;;;;4979350;28;20054;-73
2022/06/15 05:49:11;;;;;;;10.52;7.13;;;13.30;99.90;;;;;;5029236;28;20393;-72
2022/06/15 05:51:36;;;;;;;8.40;6.57;;;13.40;99.90;;;;;;5001691;28;20096;-72
2022/06/15 05:54:02;;;;;;;8.93;6.80;;;13.50;99.90;;;;;;4968634;28;20042;-73
2022/06/15 05:56:28;;;;;;;12.05;7.10;;;13.60;99.90;;;;;;4987062;28;20814;-72
2022/06/15 05:58:54;;;;;;;9.02;6.40;;;13.70;99.90;;;;;;5013715;28;20042;-72
2022/06/15 06:01:23;;;;;;;11.00;6.60;;;13.80;99.90;;;;;;5005401;28;20045;-72
2022/06/15 06:03:49;;;;;;;8.55;5.55;;;13.90;99.90;;;;;;5001254;28;20046;-72
2022/06/15 06:06:15;;;;;;;9.80;6.60;;;14.10;99.90;;;;;;5001075;28;20378;-72
2022/06/15 06:08:40;;;;;;;9.23;6.50;;;14.20;99.90;;;;;;5004159;28;20046;-72
2022/06/15 06:11:06;;;;;;;9.60;6.07;;;14.30;99.90;;;;;;5001753;28;20452;-73
2022/06/15 06:13:32;;;;;;;7.32;6.22;;;14.40;99.90;;;;;;5025961;28;20045;-73
2022/06/15 06:15:58;;;;;;;9.10;6.55;;;14.40;99.90;;;;;;4971549;28;20096;-73
2022/06/15 06:18:24;;;;;;;9.13;5.80;;;14.50;99.90;;;;;;4993140;28;20108;-73
2022/06/15 06:20:50;;;;;;;8.52;5.78;;;14.60;99.90;;;;;;5039815;28;20046;-73
2022/06/15 06:23:16;;;;;;;7.40;5.32;;;14.60;99.90;;;;;;4955890;28;1321017;-73
2022/06/15 06:25:50;;;;;;;9.48;5.95;;;14.70;99.90;;;;;;4993920;28;20072;-73
2022/06/15 06:28:29;;;;;;;9.63;5.28;;;14.90;99.90;;;;;;4981563;28;20068;-73
2022/06/15 06:30:57;;;;;;;8.13;5.13;;;15.00;99.90;;;;;;4997878;28;20054;-74
2022/06/15 06:33:27;;;;;;;7.22;4.85;;;15.10;99.90;;;;;;5001322;28;20060;-73
2022/06/15 06:35:58;;;;;;;7.80;4.63;;;15.20;99.90;;;;;;5001807;28;20052;-73
2022/06/15 06:38:24;;;;;;;7.05;4.70;;;15.30;99.90;;;;;;5009994;28;20562;-72
2022/06/15 06:40:55;;;;;;;9.52;5.53;;;15.50;99.90;;;;;;4986564;28;20453;-72
2022/06/15 06:43:21;;;;;;;7.22;4.57;;;15.60;99.90;;;;;;5011085;28;20038;-72
2022/06/15 06:45:47;;;;;;;7.18;4.40;;;15.60;99.90;;;;;;4988249;28;20053;-72
2022/06/15 06:48:14;;;;;;;8.40;4.15;;;15.80;99.90;;;;;;4985050;28;20038;-73
2022/06/15 06:50:40;;;;;;;7.20;3.92;;;15.90;99.90;;;;;;5000316;28;20522;-72
2022/06/15 06:53:08;;;;;;;7.45;3.83;;;16.00;99.90;;;;;;4999475;28;20042;-73
2022/06/15 06:55:34;;;;;;;8.02;3.40;;;16.10;99.90;;;;;;4998342;28;20397;-72
2022/06/15 06:58:00;;;;;;;8.88;3.55;;;16.30;99.90;;;;;;4995693;28;20057;-72
2022/06/15 07:00:28;;;;;;;6.63;3.28;;;16.40;99.90;;;;;;4999786;28;20048;-72
2022/06/15 07:02:54;;;;;;;7.40;3.13;;;16.50;99.90;;;;;;4983746;28;20049;-73
2022/06/15 07:05:20;;;;;;;7.53;3.40;;;16.60;99.90;;;;;;5011255;28;20046;-73
2022/06/15 07:07:46;;;;;;;6.10;2.58;;;16.70;99.90;;;;;;5003127;28;20041;-72
2022/06/15 07:10:12;;;;;;;7.15;2.35;;;16.90;99.90;;;;;;4988611;28;20132;-73
2022/06/15 07:12:42;;;;;;;5.32;2.67;;;17.00;99.90;;;;;;4990275;28;20393;-72
2022/06/15 07:15:10;;;;;;;5.57;2.00;;;17.30;99.90;;;;;;5001920;28;20524;-72
2022/06/15 07:17:36;;;;;;;7.70;2.53;;;17.40;99.90;;;;;;5001447;28;20076;-73
2022/06/15 07:20:03;;;;;;;8.73;2.67;;;17.60;99.90;;;;;;5001657;28;20501;-71
2022/06/15 07:22:28;;;;;;;6.72;2.50;;;17.70;99.90;;;;;;4986518;28;20145;-72
2022/06/15 07:24:56;;;;;;;6.80;2.83;;;17.80;99.90;;;;;;4999505;28;20643;-71
2022/06/15 07:27:22;;;;;;;5.47;2.50;;;17.90;99.90;;;;;;5000186;28;20046;-71
2022/06/15 07:29:48;;;;;;;5.55;2.80;;;18.00;99.90;;;;;;5000408;28;20121;-72
2022/06/15 07:32:16;;;;;;;5.15;2.55;;;18.00;99.90;;;;;;4998836;28;20050;-72
2022/06/15 07:34:42;;;;;;;6.45;2.75;;;18.00;99.90;;;;;;4988830;28;20128;-71
2022/06/15 07:37:10;;;;;;;7.43;2.78;;;18.00;99.90;;;;;;5000110;28;20069;-72
2022/06/15 07:39:37;;;;;;;7.88;2.45;;;18.20;99.90;;;;;;5016117;28;20046;-71
2022/06/15 07:42:06;;;;;;;7.38;2.38;;;18.30;99.90;;;;;;4983393;28;20050;-71
2022/06/15 07:44:34;;;;;;;6.03;2.83;;;18.40;99.90;;;;;;5001224;28;20041;-71
2022/06/15 07:49:57;;;;;;;5.72;2.50;;;18.50;99.90;;;;;;5037535;28;20129;-72
2022/06/15 07:52:36;;;;;;;6.05;2.38;;;18.60;99.90;;;;;;5002032;28;20564;-72
2022/06/15 07:55:05;;;;;;;7.72;2.60;;;18.70;99.90;;;;;;5033981;28;20159;-73
2022/06/15 07:57:31;;;;;;;6.78;2.50;;;18.80;99.90;;;;;;5002913;28;20053;-71
2022/06/15 07:59:57;;;;;;;4.72;2.00;;;19.00;99.90;;;;;;5016735;28;20041;-71
2022/06/15 08:02:26;;;;;;;5.90;2.15;;;19.10;99.90;;;;;;5002044;28;20053;-72
2022/06/15 08:04:51;;;;;;;7.25;2.60;;;19.20;99.90;;;;;;4985252;28;20069;-72
2022/06/15 08:07:18;;;;;;;8.20;2.88;;;19.30;99.90;;;;;;4984083;28;20130;-72
2022/06/15 08:09:47;;;;;;;4.38;2.30;;;19.30;99.90;;;;;;5011901;28;20046;-73
2022/06/15 08:12:18;;;;;;;6.75;2.45;;;19.40;99.90;;;;;;4986132;28;20135;-71
2022/06/15 08:14:47;;;;;;;5.53;2.47;;;19.40;99.90;;;;;;5000445;28;20042;-72
2022/06/15 08:17:18;;;;;;;5.75;2.00;;;19.60;99.90;;;;;;4990756;28;20041;-72
2022/06/15 08:19:51;;;;;;;5.05;2.03;;;19.60;99.90;;;;;;5035074;28;20200;-72
2022/06/15 08:22:17;;;;;;;6.75;1.98;;;19.70;99.90;;;;;;4989958;28;20049;-72
2022/06/15 08:24:44;;;;;;;5.57;2.35;;;19.70;99.90;;;;;;5004141;28;20145;-73
2022/06/15 08:27:12;;;;;;;5.30;2.42;;;19.70;99.90;;;;;;5000534;28;20489;-74
2022/06/15 08:29:39;;;;;;;5.65;3.25;;;19.80;99.90;;;;;;4997640;28;20081;-74
2022/06/15 08:32:05;;;;;;;4.78;2.30;;;19.70;99.90;;;;;;5014739;28;20096;-73
2022/06/15 08:34:36;;;;;;;6.32;2.33;;;19.70;99.90;;;;;;5001486;28;20132;-73
2022/06/15 08:37:02;;;;;;;6.00;2.35;;;19.90;99.90;;;;;;4970934;28;20056;-73
2022/06/15 08:39:28;;;;;;;4.55;1.95;;;20.00;99.90;;;;;;5015832;28;21386;-73
2022/06/15 08:42:04;;;;;;;5.82;2.58;;;19.90;99.90;;;;;;4999792;28;20084;-73
2022/06/15 08:44:44;;;;;;;6.82;2.65;;;19.60;99.90;;;;;;5013600;28;20100;-71
2022/06/15 08:47:36;;;;;;;;;;;19.50;98.80;;;;;;4985708;28;20049;-71
2022/06/15 08:50:32;;;;;;;5.30;2.05;;;19.30;99.90;;;;;;5017003;28;19973;-72
2022/06/15 08:52:57;;;;;;;6.93;2.58;;;19.20;99.90;;;;;;5034385;28;20050;-73
2022/06/15 08:55:38;;;;;;;6.07;2.38;;;19.20;99.90;;;;;;5002505;28;20057;-74
2022/06/15 08:58:14;;;;;;;6.82;2.85;;;19.20;99.90;;;;;;4998277;28;20053;-73
2022/06/15 09:00:41;;;;;;;6.63;2.25;;;19.10;99.90;;;;;;4998777;28;20378;-72
2022/06/15 09:03:21;;;;;;;5.35;2.10;;;19.00;99.90;;;;;;4997789;28;20034;-72
2022/06/15 09:05:56;;;;;;;4.80;1.90;;;18.80;99.00;;;;;;4985526;28;20400;-71
2022/06/15 09:08:22;;;;;;;4.30;1.90;;;18.80;95.20;;;;;;5003017;28;20099;-71
2022/06/15 09:10:55;;;;;;;4.10;1.45;;;19.10;96.00;;;;;;4984948;28;20038;-71
2022/06/15 09:13:36;;;;;;;4.15;2.13;;;19.40;97.70;;;;;;5005110;28;20050;-73
2022/06/15 09:16:15;;;;;;;5.60;2.20;;;19.60;93.80;;;;;;5000851;28;20100;-73
2022/06/15 09:18:46;;;;;;;5.00;1.92;;;19.50;94.40;;;;;;4991133;28;20050;-72
2022/06/15 09:21:26;;;;;;;6.30;2.50;;;19.50;96.60;;;;;;5002367;28;20265;-72
2022/06/15 09:24:01;;;;;;;5.35;2.20;;;19.50;96.50;;;;;;5007744;28;20117;-72
2022/06/15 09:26:33;;;;;;;5.18;2.25;;;19.50;97.70;;;;;;5017981;28;20612;-73
2022/06/15 09:29:20;;;;;;;4.70;1.83;;;19.40;98.90;;;;;;4990142;28;20038;-72
2022/06/15 09:32:07;;;;;;;5.68;1.92;;;19.60;96.00;;;;;;5005843;28;20052;-73
2022/06/15 09:34:43;;;;;;;5.55;2.72;;;19.90;93.40;;;;;;4999651;28;20477;-72
2022/06/15 09:37:15;;;;;;;4.35;2.25;;;20.20;93.60;;;;;;5019982;28;20606;-71
2022/06/15 09:39:42;;;;;;;5.55;2.30;;;20.40;92.90;;;;;;5011251;28;20583;-72
2022/06/15 09:42:26;;;;;;;4.53;1.67;;;20.50;94.60;;;;;;4996563;28;20184;-72
2022/06/15 09:45:11;;;;;;;4.53;2.20;;;20.60;91.80;;;;;;5011603;28;20045;-72
2022/06/15 09:47:55;;;;;;;4.90;1.83;;;20.80;91.60;;;;;;5034263;28;20121;-72
2022/06/15 09:50:43;;;;;;;6.63;2.40;;;20.90;93.50;;;;;;4988890;28;20053;-72
2022/06/15 09:53:33;;;;;;;5.40;2.47;;;21.00;91.20;;;;;;5007109;28;20179;-72
2022/06/15 09:56:07;;;;;;;7.03;2.22;;;21.10;93.70;;;;;;5003490;28;20042;-72
2022/06/15 09:58:44;;;;;;;4.93;2.10;;;21.10;91.90;;;;;;5023242;28;20049;-71
2022/06/15 10:01:11;;;;;;;5.55;2.50;;;21.00;88.70;;;;;;5004652;28;20049;-72
2022/06/15 10:03:43;;;;;;;5.57;2.30;;;20.80;90.10;;;;;;5028746;28;20719;-72
2022/06/15 10:06:23;;;;;;;5.63;2.35;;;20.80;90.40;;;;;;5004334;28;20119;-73
2022/06/15 10:08:49;;;;;;;5.53;2.17;;;20.80;92.00;;;;;;4988353;28;20088;-72
2022/06/15 10:11:27;;;;;;;5.10;2.40;;;21.00;90.20;;;;;;5002444;28;20405;-72
2022/06/15 10:13:53;;;;;;;4.47;1.92;;;21.00;89.90;;;;;;5020256;28;20078;-72
2022/06/15 10:16:31;;;;;;;6.45;2.20;;;21.10;90.90;;;;;;5002932;28;20509;-73
2022/06/15 10:19:05;;;;;;;5.38;2.42;;;21.30;91.40;;;;;;4986358;28;20075;-73
2022/06/15 10:21:34;;;;;;;10.20;2.28;;;21.30;88.70;;;;;;5003662;28;20674;-72
2022/06/15 10:24:15;;;;;;;4.20;2.17;;;21.40;91.80;;;;;;5000745;28;20811;-72
2022/06/15 10:26:48;;;;;;;4.72;2.30;;;21.60;90.10;;;;;;4998803;28;20054;-72
2022/06/15 10:29:20;;;;;;;7.50;2.10;;;21.90;86.00;;;;;;5004177;28;20053;-72
2022/06/15 10:32:08;;;;;;;4.95;1.80;;;21.90;85.10;;;;;;4999465;28;20081;-72
2022/06/15 10:34:46;;;;;;;5.68;2.50;;;21.70;85.40;;;;;;5017104;28;20261;-72
2022/06/15 10:37:34;;;;;;;6.30;1.92;;;21.40;84.90;;;;;;5033111;28;20053;-73
2022/06/15 10:40:05;;;;;;;4.88;2.10;;;21.50;83.30;;;;;;4979816;28;20131;-72
2022/06/15 10:42:40;;;;;;;5.47;2.50;;;21.70;84.30;;;;;;4988328;28;20489;-73
2022/06/15 10:45:20;;;;;;;4.57;1.80;;;21.70;81.80;;;;;;5001258;28;20056;-72
2022/06/15 10:47:57;;;;;;;5.13;1.92;;;22.00;85.70;;;;;;5019892;28;20446;-72
2022/06/15 10:50:49;;;;;;;4.45;1.98;;;22.20;79.50;;;;;;5004608;28;20049;-73
2022/06/15 10:53:44;;;;;;;3.42;1.52;;;22.40;79.70;;;;;;5025123;28;20034;-76
2022/06/15 11:02:28;;;;;;;6.03;2.17;;;21.90;78.20;;;;;;5001675;28;20041;-72
2022/06/15 11:05:11;;;;;;;4.70;1.77;;;21.50;81.90;;;;;;5000716;28;20076;-72
2022/06/15 11:07:49;;;;;;;4.22;1.77;;;21.40;84.30;;;;;;5001535;28;20521;-73
2022/06/15 11:10:26;;;;;;;5.88;2.00;;;21.30;83.10;;;;;;4997667;28;20042;-71
2022/06/15 11:13:00;;;;;;;4.22;1.73;;;21.20;85.10;;;;;;4986535;28;20420;-72
2022/06/15 11:18:39;;;;;;;5.30;2.28;;;21.20;80.30;;;;;;5031473;28;20454;-71
2022/06/15 11:21:09;;;;;;;4.53;1.92;;;21.30;79.00;;;;;;5003272;28;20053;-72
2022/06/15 11:24:02;;;;;;;5.97;1.83;;;21.60;76.70;;;;;;4986138;28;20600;-73
2022/06/15 11:27:02;;;;;;;5.95;2.17;;;21.70;80.00;;;;;;4983891;28;20056;-72
2022/06/15 11:29:41;;;;;;;5.55;1.90;;;22.00;83.00;;;;;;5015136;28;20452;-72
2022/06/15 11:32:38;;;;;;;5.40;1.95;;;22.10;83.10;;;;;;4994619;28;20053;-73
2022/06/15 11:35:12;;;;;;;5.88;2.45;;;22.30;84.00;;;;;;5036684;28;20483;-72
2022/06/15 11:38:04;;;;;;;5.72;2.00;;;22.40;70.00;;;;;;4986179;28;20042;-72
2022/06/15 11:40:36;;;;;;;4.28;2.08;;;22.50;75.60;;;;;;4999947;28;20436;-73
2022/06/15 11:43:29;;;;;;;4.55;2.08;;;22.50;71.10;;;;;;4981604;28;20127;-73
2022/06/15 11:46:16;;;;;;;4.10;1.90;;;22.50;70.00;;;;;;5024786;28;20092;-73
2022/06/15 11:48:56;;;;;;;6.60;2.00;;;22.60;74.10;;;;;;5002030;28;20050;-72
2022/06/15 11:51:54;;;;;;;5.03;2.13;;;22.60;70.40;;;;;;5001994;28;20046;-72
2022/06/15 11:54:32;;;;;;;4.05;1.65;;;22.70;67.10;;;;;;5004614;28;20298;-73
2022/06/15 11:57:32;;;;;;;5.03;2.10;;;22.70;71.20;;;;;;5001026;28;20049;-71
2022/06/15 12:00:14;;;;;;;6.85;2.05;;;22.80;67.60;;;;;;5031048;28;20057;-72
2022/06/15 12:03:01;;;;;;;4.70;1.90;;;22.70;73.60;;;;;;4985470;28;20154;-72
2022/06/15 12:05:29;;;;;;;5.28;2.08;;;22.50;68.60;;;;;;5000435;28;20046;-73
2022/06/15 12:08:07;;;;;;;4.55;1.92;;;22.10;74.80;;;;;;4998869;28;20049;-73
2022/06/15 12:10:52;;;;;;;7.90;2.40;;;21.90;73.70;;;;;;5034787;28;20058;-72
2022/06/15 12:13:40;;;;;;;6.45;2.20;;;22.00;75.70;;;;;;5000927;28;20042;-72
2022/06/15 12:16:38;;;;;;;4.20;2.03;;;22.00;70.40;;;;;;4999095;28;20046;-72
2022/06/15 12:19:42;;;;;;;5.63;2.08;;;22.10;71.60;;;;;;5023371;28;20049;-72
2022/06/15 12:22:30;;;;;;;4.22;1.98;;;22.30;68.90;;;;;;4993040;28;20414;-73
2022/06/15 12:25:08;;;;;;;5.88;1.73;;;22.50;76.00;;;;;;4999295;28;20045;-72
2022/06/15 12:27:57;;;;;;;5.20;2.33;;;22.70;75.40;;;;;;5014656;28;20314;-73
2022/06/15 12:30:45;;;;;;;4.75;1.83;;;22.80;69.00;;;;;;5017029;28;20175;-72
2022/06/15 12:33:28;;;;;;;5.00;2.03;;;22.70;69.60;;;;;;5009639;28;20042;-72
2022/06/15 12:36:03;;;;;;;5.03;2.00;;;22.60;67.90;;;;;;5031697;28;20497;-73
2022/06/15 12:38:38;;;;;;;4.63;1.83;;;22.50;71.10;;;;;;5001773;28;20060;-73
2022/06/15 12:44:38;;;;;;;4.72;1.90;;;22.50;69.00;;;;;;5029765;28;20169;-72
2022/06/15 12:47:10;;;;;;;5.95;2.20;;;22.70;71.00;;;;;;5000010;28;20368;-73
2022/06/15 12:49:54;;;;;;;5.82;1.85;;;22.90;67.50;;;;;;4993485;28;20128;-73
2022/06/15 12:52:33;;;;;;;6.63;1.90;;;22.80;65.80;;;;;;4989200;28;20140;-73
2022/06/15 12:55:14;;;;;;;5.47;2.10;;;22.80;69.00;;;;;;5006651;28;20045;-73
2022/06/15 12:57:52;;;;;;;5.20;1.88;;;23.00;69.40;;;;;;4988498;28;20052;-73
2022/06/15 13:00:38;;;;;;;5.55;1.95;;;23.10;73.50;;;;;;5005692;28;20037;-73
2022/06/15 13:03:33;;;;;;;3.95;1.90;;;23.50;71.20;;;;;;4991382;28;20104;-73
2022/06/15 13:06:18;;;;;;;4.35;1.95;;;23.60;65.40;;;;;;4970592;28;20053;-72
2022/06/15 13:08:58;;;;;;;5.82;1.95;;;23.70;67.70;;;;;;5036004;28;20068;-71
2022/06/15 13:11:24;;;;;;;3.78;1.80;;;23.80;63.80;;;;;;4973834;28;20037;-72
2022/06/15 13:13:53;;;;;;;4.50;1.83;;;23.60;62.40;;;;;;5008960;28;20235;-72
2022/06/15 13:17:06;;;;;;;5.78;2.28;;;23.60;63.20;;;;;;5010109;28;20125;-73
2022/06/15 13:19:44;;;;;;;4.93;2.05;;;23.70;68.80;;;;;;4997075;28;20053;-72
2022/06/15 13:22:14;;;;;;;4.22;1.75;;;24.00;67.10;;;;;;5003483;28;20166;-73
2022/06/15 13:25:06;;;;;;;;;;;24.30;64.10;;;;;;5033575;28;20097;-73
2022/06/15 13:28:07;;;;;;;4.68;2.40;;;24.40;64.70;;;;;;5003663;28;19925;-73
2022/06/15 13:30:48;;;;;;;5.10;2.08;;;24.30;60.80;;;;;;5003533;28;20070;-72
2022/06/15 13:33:14;;;;;;;5.13;2.25;;;24.20;59.30;;;;;;5003824;28;20049;-73
2022/06/15 13:35:46;;;;;;;6.60;2.30;;;23.60;59.90;;;;;;4988545;28;20038;-73